Time;durP1;ratioP1;P1;durP2;ratioP2;P2;SDS_P1;SDS_P2;PMS_P1;PMS_P2;Temp;Humidity;BMP_temperature;BMP_pressure;BME280_temperature;BME280_humidity;BME280_pressure;Samples;Min_cycle;Max_cycle;Signal;HPM_P1;HPM_P2
2021/11/05 00:01:43;;;;;;;1.80;1.20;;;;;;;;;;4976592;28;20037;-87
2021/11/05 00:04:10;;;;;;;3.50;0.90;;;;;;;;;;4992025;28;20054;-88
2021/11/05 00:06:36;;;;;;;1.33;0.93;;;;;;;;;;4985639;28;20023;-87
2021/11/05 00:09:02;;;;;;;1.08;0.80;;;;;;;;;;4988764;28;20018;-87
2021/11/05 00:11:28;;;;;;;1.00;0.90;;;;;;;;;;4986176;28;20030;-88
2021/11/05 00:13:54;;;;;;;1.60;1.20;;;;;;;;;;4989114;28;20023;-88
2021/11/05 00:16:20;;;;;;;1.00;0.85;;;;;;;;;;4969728;28;20515;-88
2021/11/05 00:18:46;;;;;;;1.13;0.90;;;;;;;;;;4990660;28;20026;-88
2021/11/05 00:21:12;;;;;;;1.45;0.82;;;;;;;;;;4978638;28;20130;-88
2021/11/05 00:23:38;;;;;;;1.70;0.98;;;;;;;;;;4975119;28;20038;-88
2021/11/05 00:26:04;;;;;;;1.08;0.70;;;;;;;;;;4974458;28;20030;-88
2021/11/05 00:28:30;;;;;;;1.20;0.80;;;;;;;;;;4973132;28;20523;-87
2021/11/05 00:30:56;;;;;;;1.40;0.90;;;;;;;;;;4974034;28;20023;-88
2021/11/05 00:33:22;;;;;;;0.70;0.60;;;;;;;;;;4989579;28;20058;-88
2021/11/05 00:35:48;;;;;;;1.55;0.75;;;;;;;;;;4975077;28;20183;-88
2021/11/05 00:38:14;;;;;;;1.08;0.70;;;;;;;;;;4981531;28;20061;-87
2021/11/05 00:40:41;;;;;;;0.95;0.65;;;;;;;;;;5001518;28;20058;-88
2021/11/05 00:43:07;;;;;;;1.02;0.80;;;;;;;;;;4994569;28;20121;-87
2021/11/05 00:45:33;;;;;;;1.08;0.82;;;;;;;;;;5007702;28;20033;-87
2021/11/05 00:47:59;;;;;;;1.35;1.00;;;;;;;;;;4995115;28;20019;-87
2021/11/05 00:50:25;;;;;;;1.55;0.93;;;;;;;;;;4977035;28;20023;-88
2021/11/05 00:52:51;;;;;;;1.65;0.93;;;;;;;;;;4994896;28;20014;-88
2021/11/05 00:55:17;;;;;;;1.42;1.00;;;;;;;;;;4993046;28;20394;-88
2021/11/05 00:57:43;;;;;;;1.50;1.10;;;;;;;;;;4986450;28;20036;-88
2021/11/05 01:00:14;;;;;;;4.00;1.10;;;;;;;;;;4993201;28;20050;-88
2021/11/05 01:02:41;;;;;;;3.03;1.25;;;;;;;;;;5015734;28;20057;-88
2021/11/05 01:05:07;;;;;;;2.35;1.20;;;;;;;;;;4998925;28;20070;-87
2021/11/05 01:07:33;;;;;;;2.80;1.08;;;;;;;;;;4993047;28;20030;-87
2021/11/05 01:09:59;;;;;;;1.92;1.25;;;;;;;;;;4976528;28;20430;-87
2021/11/05 01:12:25;;;;;;;3.17;1.50;;;;;;;;;;4976664;28;20126;-88
2021/11/05 01:14:52;;;;;;;1.35;1.02;;;;;;;;;;4995669;28;20030;-88
2021/11/05 01:17:18;;;;;;;2.78;1.33;;;;;;;;;;4995692;28;20129;-88
2021/11/05 01:19:44;;;;;;;2.30;1.40;;;;;;;;;;4996933;28;20018;-87
2021/11/05 01:22:11;;;;;;;3.90;1.40;;;;;;;;;;4979690;28;20386;-87
2021/11/05 01:24:37;;;;;;;2.72;1.23;;;;;;;;;;4979585;28;20060;-87
2021/11/05 01:27:03;;;;;;;2.20;1.20;;;;;;;;;;4979872;28;20034;-87
2021/11/05 01:29:29;;;;;;;1.70;1.02;;;;;;;;;;4996981;28;20117;-87
2021/11/05 01:31:56;;;;;;;4.25;1.15;;;;;;;;;;4983299;28;20109;-87
2021/11/05 01:34:22;;;;;;;3.67;1.35;;;;;;;;;;4987716;28;20027;-87
2021/11/05 01:36:48;;;;;;;3.45;1.08;;;;;;;;;;4979308;28;20125;-87
2021/11/05 01:39:15;;;;;;;3.92;1.30;;;;;;;;;;4978888;28;20035;-87
2021/11/05 01:41:42;;;;;;;1.90;1.23;;;;;;;;;;4989976;28;20039;-87
2021/11/05 01:44:08;;;;;;;2.25;1.15;;;;;;;;;;4990118;28;20122;-87
2021/11/05 01:46:41;;;;;;;2.35;1.38;;;;;;;;;;4988937;28;20518;-87
2021/11/05 01:49:08;;;;;;;1.83;1.13;;;;;;;;;;4990240;28;20057;-88
2021/11/05 01:51:35;;;;;;;2.60;1.40;;;;;;;;;;4992684;28;20435;-87
2021/11/05 01:54:01;;;;;;;2.53;1.20;;;;;;;;;;4990081;28;20027;-87
2021/11/05 01:56:27;;;;;;;2.70;1.52;;;;;;;;;;4992330;28;20418;-87
2021/11/05 01:58:53;;;;;;;2.03;1.30;;;;;;;;;;4990751;28;20046;-87
2021/11/05 02:01:19;;;;;;;5.38;2.20;;;;;;;;;;4991871;28;20367;-88
2021/11/05 02:03:45;;;;;;;2.78;1.35;;;;;;;;;;4988696;28;20078;-87
2021/11/05 02:06:11;;;;;;;7.10;2.00;;;;;;;;;;4978605;28;20449;-87
2021/11/05 02:08:40;;;;;;;2.88;1.67;;;;;;;;;;4980287;28;20125;-87
2021/11/05 02:11:06;;;;;;;3.35;1.83;;;;;;;;;;4992248;28;20031;-87
2021/11/05 02:13:33;;;;;;;2.83;1.88;;;;;;;;;;4992301;28;20037;-87
2021/11/05 02:15:59;;;;;;;3.33;1.50;;;;;;;;;;4993891;28;20498;-88
2021/11/05 02:18:25;;;;;;;2.90;1.90;;;;;;;;;;4993079;28;20069;-87
2021/11/05 02:20:56;;;;;;;3.65;1.90;;;;;;;;;;4992174;28;20058;-87
2021/11/05 02:23:23;;;;;;;2.58;1.77;;;;;;;;;;4991465;28;20085;-87
2021/11/05 02:25:49;;;;;;;3.08;1.70;;;;;;;;;;4992337;28;20470;-87
2021/11/05 02:28:15;;;;;;;4.40;1.80;;;;;;;;;;4975937;28;20137;-87
2021/11/05 02:30:41;;;;;;;6.93;2.53;;;;;;;;;;4999706;28;20113;-87
2021/11/05 02:33:08;;;;;;;5.30;2.10;;;;;;;;;;4993741;28;20398;-87
2021/11/05 02:35:34;;;;;;;2.63;1.50;;;;;;;;;;4975878;28;20410;-87
2021/11/05 02:38:00;;;;;;;6.63;2.38;;;;;;;;;;4976423;28;20492;-87
2021/11/05 02:40:26;;;;;;;4.28;1.40;;;;;;;;;;4984242;28;20034;-88
2021/11/05 02:42:52;;;;;;;2.72;1.75;;;;;;;;;;4984198;28;20053;-88
2021/11/05 02:45:18;;;;;;;4.38;1.50;;;;;;;;;;4977857;28;20456;-88
2021/11/05 02:47:44;;;;;;;2.15;1.55;;;;;;;;;;4981286;28;20049;-87
2021/11/05 02:50:15;;;;;;;2.90;1.73;;;;;;;;;;4994324;28;20541;-87
2021/11/05 02:52:41;;;;;;;2.83;1.80;;;;;;;;;;4984332;28;20050;-87
2021/11/05 02:55:08;;;;;;;4.45;2.00;;;;;;;;;;4992328;28;20022;-87
2021/11/05 02:57:34;;;;;;;6.80;1.98;;;;;;;;;;4990736;28;20508;-87
2021/11/05 03:00:00;;;;;;;3.55;2.15;;;;;;;;;;4984833;28;20023;-87
2021/11/05 03:02:26;;;;;;;5.13;2.25;;;;;;;;;;4994065;28;20121;-87
2021/11/05 03:04:54;;;;;;;3.42;1.90;;;;;;;;;;4976967;28;20558;-89
2021/11/05 03:07:20;;;;;;;2.85;1.73;;;;;;;;;;4980535;28;20102;-88
2021/11/05 03:09:46;;;;;;;3.10;1.80;;;;;;;;;;4990590;28;20118;-88
2021/11/05 03:12:12;;;;;;;3.45;1.80;;;;;;;;;;4990431;28;20441;-87
2021/11/05 03:14:39;;;;;;;2.92;1.83;;;;;;;;;;4974187;28;20022;-87
2021/11/05 03:17:06;;;;;;;3.15;1.88;;;;;;;;;;4979388;28;20122;-87
2021/11/05 03:19:32;;;;;;;3.58;1.83;;;;;;;;;;4974273;28;20545;-87
2021/11/05 03:21:58;;;;;;;6.93;2.03;;;;;;;;;;4988320;28;20125;-87
2021/11/05 03:24:24;;;;;;;3.03;1.73;;;;;;;;;;5001475;28;20120;-87
2021/11/05 03:26:50;;;;;;;3.40;2.13;;;;;;;;;;4995210;28;20060;-87
2021/11/05 03:29:16;;;;;;;3.70;2.13;;;;;;;;;;4978983;28;20026;-88
2021/11/05 03:31:43;;;;;;;4.50;2.55;;;;;;;;;;4974035;28;20364;-88
2021/11/05 03:34:09;;;;;;;5.20;2.42;;;;;;;;;;4979186;28;20096;-88
2021/11/05 03:36:35;;;;;;;3.47;2.30;;;;;;;;;;4980320;28;20073;-88
2021/11/05 03:39:01;;;;;;;3.97;2.30;;;;;;;;;;4990466;28;20034;-88
2021/11/05 03:41:27;;;;;;;4.38;2.45;;;;;;;;;;4986130;28;20042;-88
2021/11/05 03:43:53;;;;;;;5.50;3.50;;;;;;;;;;4990804;28;20033;-88
2021/11/05 03:46:19;;;;;;;4.68;2.75;;;;;;;;;;4987160;28;20463;-87
2021/11/05 03:48:46;;;;;;;5.20;2.80;;;;;;;;;;4985510;28;20034;-88
2021/11/05 03:51:12;;;;;;;6.97;3.25;;;;;;;;;;4987823;28;20023;-87
2021/11/05 03:53:39;;;;;;;5.15;3.25;;;;;;;;;;4981225;28;20018;-88
2021/11/05 03:56:05;;;;;;;5.53;3.53;;;;;;;;;;4990499;28;20034;-87
2021/11/05 03:58:31;;;;;;;6.88;4.00;;;;;;;;;;4990696;28;20137;-87
2021/11/05 04:00:58;;;;;;;5.57;3.38;;;;;;;;;;4971193;28;20038;-87
2021/11/05 04:03:24;;;;;;;6.32;3.85;;;;;;;;;;4987275;28;20478;-87
2021/11/05 04:05:50;;;;;;;6.40;3.65;;;;;;;;;;4980375;28;20048;-87
2021/11/05 04:08:16;;;;;;;6.70;3.53;;;;;;;;;;4976941;28;20033;-87
2021/11/05 04:10:42;;;;;;;6.35;3.70;;;;;;;;;;4989541;28;20386;-87
2021/11/05 04:13:08;;;;;;;7.88;4.35;;;;;;;;;;4987013;28;20069;-87
2021/11/05 04:15:34;;;;;;;7.57;4.20;;;;;;;;;;4984229;28;20474;-88
2021/11/05 04:18:00;;;;;;;8.07;4.10;;;;;;;;;;4991968;28;20108;-88
2021/11/05 04:20:26;;;;;;;7.95;4.68;;;;;;;;;;4979637;28;20038;-87
2021/11/05 04:22:52;;;;;;;7.07;4.20;;;;;;;;;;4986507;28;20058;-87
2021/11/05 04:25:18;;;;;;;8.38;4.88;;;;;;;;;;4983723;28;20038;-87
2021/11/05 04:27:45;;;;;;;8.43;4.85;;;;;;;;;;4985260;28;20376;-87
2021/11/05 04:30:12;;;;;;;10.65;5.45;;;;;;;;;;4981914;28;20459;-87
2021/11/05 04:32:38;;;;;;;10.75;5.63;;;;;;;;;;4990288;28;20474;-87
2021/11/05 04:35:04;;;;;;;10.45;5.53;;;;;;;;;;4982684;28;20112;-87
2021/11/05 04:37:30;;;;;;;7.63;4.75;;;;;;;;;;4988370;28;20133;-87
2021/11/05 04:39:57;;;;;;;9.60;5.32;;;;;;;;;;4992071;28;20054;-87
2021/11/05 04:42:23;;;;;;;12.52;6.30;;;;;;;;;;4989562;28;20454;-87
2021/11/05 04:44:48;;;;;;;9.18;5.38;;;;;;;;;;4957032;28;20059;-87
2021/11/05 04:47:16;;;;;;;10.55;6.07;;;;;;;;;;4956993;28;20360;-87
2021/11/05 04:49:42;;;;;;;11.25;6.35;;;;;;;;;;4982150;28;20105;-87
2021/11/05 04:52:08;;;;;;;13.23;6.50;;;;;;;;;;4992399;28;20104;-87
2021/11/05 04:54:34;;;;;;;11.40;6.63;;;;;;;;;;4984428;28;20074;-87
2021/11/05 04:57:00;;;;;;;13.75;7.13;;;;;;;;;;4965862;28;20433;-87
2021/11/05 04:59:26;;;;;;;14.20;7.75;;;;;;;;;;4973757;28;20030;-87
2021/11/05 05:01:52;;;;;;;13.60;7.20;;;;;;;;;;4979083;28;20034;-87
2021/11/05 05:04:18;;;;;;;11.63;6.45;;;;;;;;;;4980056;28;20027;-87
2021/11/05 05:06:44;;;;;;;14.18;7.20;;;;;;;;;;4969776;28;20116;-87
2021/11/05 05:09:11;;;;;;;13.70;6.95;;;;;;;;;;4989733;28;20081;-88
2021/11/05 05:11:37;;;;;;;13.60;6.85;;;;;;;;;;4981682;28;20023;-89
2021/11/05 05:14:03;;;;;;;15.10;7.25;;;;;;;;;;4986909;28;20026;-85
2021/11/05 05:16:29;;;;;;;14.43;6.75;;;;;;;;;;4993497;28;20081;-87
2021/11/05 05:18:55;;;;;;;11.90;6.90;;;;;;;;;;4975894;28;20413;-87
2021/11/05 05:21:21;;;;;;;11.98;6.78;;;;;;;;;;4975965;28;20093;-86
2021/11/05 05:23:47;;;;;;;14.30;7.15;;;;;;;;;;4976073;28;20030;-87
2021/11/05 05:26:13;;;;;;;12.90;7.10;;;;;;;;;;4992535;28;20033;-87
2021/11/05 05:28:39;;;;;;;12.65;6.72;;;;;;;;;;4967632;28;20074;-87
2021/11/05 05:31:07;;;;;;;11.80;6.85;;;;;;;;;;4963983;28;20069;-86
2021/11/05 05:33:35;;;;;;;13.77;7.60;;;;;;;;;;4968928;28;20023;-86
2021/11/05 05:36:01;;;;;;;14.93;7.47;;;;;;;;;;4974104;28;20027;-86
2021/11/05 05:38:27;;;;;;;15.55;7.90;;;;;;;;;;4976981;28;20125;-86
2021/11/05 05:40:53;;;;;;;15.32;7.90;;;;;;;;;;4990350;28;20118;-86
2021/11/05 05:43:19;;;;;;;15.07;7.72;;;;;;;;;;4970123;28;20034;-87
2021/11/05 05:45:45;;;;;;;15.98;8.75;;;;;;;;;;4986071;28;20145;-85
2021/11/05 05:48:11;;;;;;;16.67;7.32;;;;;;;;;;4969987;28;20046;-86
2021/11/05 05:50:37;;;;;;;14.85;7.85;;;;;;;;;;4983979;28;20027;-86
2021/11/05 05:53:03;;;;;;;16.58;7.97;;;;;;;;;;4986774;28;20039;-85
2021/11/05 05:55:29;;;;;;;16.92;7.93;;;;;;;;;;4988330;28;20038;-85
2021/11/05 05:57:55;;;;;;;17.92;8.95;;;;;;;;;;4984181;28;20386;-84
2021/11/05 06:00:21;;;;;;;21.50;9.27;;;;;;;;;;4986255;28;20137;-86
2021/11/05 06:02:47;;;;;;;18.35;8.55;;;;;;;;;;4972619;28;20521;-86
2021/11/05 06:05:14;;;;;;;19.65;8.98;;;;;;;;;;4976863;28;20068;-86
2021/11/05 06:07:40;;;;;;;18.30;8.85;;;;;;;;;;4988124;28;20102;-86
2021/11/05 06:10:06;;;;;;;20.05;8.85;;;;;;;;;;4979966;28;20494;-87
2021/11/05 06:12:32;;;;;;;21.90;9.85;;;;;;;;;;4973834;28;20058;-86
2021/11/05 06:14:58;;;;;;;20.27;9.63;;;;;;;;;;4989275;28;20117;-86
2021/11/05 06:17:24;;;;;;;18.83;9.32;;;;;;;;;;4971522;28;20391;-85
2021/11/05 06:19:51;;;;;;;20.27;8.70;;;;;;;;;;4970872;28;20346;-86
2021/11/05 06:22:18;;;;;;;17.45;8.57;;;;;;;;;;4976748;28;20033;-86
2021/11/05 06:24:45;;;;;;;17.88;9.15;;;;;;;;;;4967816;28;20085;-86
2021/11/05 06:27:11;;;;;;;18.65;9.23;;;;;;;;;;4969881;28;20043;-86
2021/11/05 06:29:37;;;;;;;15.98;9.05;;;;;;;;;;4986846;28;20471;-86
2021/11/05 06:32:03;;;;;;;18.60;8.75;;;;;;;;;;4969808;28;20074;-85
2021/11/05 06:34:29;;;;;;;18.77;8.50;;;;;;;;;;4984979;28;20034;-86
2021/11/05 06:36:55;;;;;;;18.58;8.32;;;;;;;;;;4971939;28;20391;-86
2021/11/05 06:39:21;;;;;;;18.90;9.23;;;;;;;;;;4971035;28;20053;-86
2021/11/05 06:41:48;;;;;;;17.15;8.20;;;;;;;;;;4972273;28;20078;-86
2021/11/05 06:44:14;;;;;;;17.77;8.68;;;;;;;;;;4969259;28;20101;-85
2021/11/05 06:46:40;;;;;;;17.42;8.00;;;;;;;;;;4986744;28;20123;-86
2021/11/05 06:49:06;;;;;;;17.75;9.02;;;;;;;;;;4972812;28;20042;-86
2021/11/05 06:51:32;;;;;;;14.95;8.32;;;;;;;;;;4972823;28;20023;-86
2021/11/05 06:53:58;;;;;;;19.70;8.90;;;;;;;;;;4969623;28;20115;-86
2021/11/05 06:56:24;;;;;;;16.45;7.68;;;;;;;;;;4972247;28;20029;-86
2021/11/05 06:58:51;;;;;;;15.70;7.68;;;;;;;;;;4973076;28;20506;-85
2021/11/05 07:01:17;;;;;;;18.08;8.05;;;;;;;;;;4984843;28;20438;-85
2021/11/05 07:03:43;;;;;;;18.08;8.52;;;;;;;;;;4992960;28;20035;-86
2021/11/05 07:06:10;;;;;;;14.93;7.88;;;;;;;;;;4970435;28;20372;-85
2021/11/05 07:08:36;;;;;;;17.88;7.95;;;;;;;;;;4971940;28;20019;-85
2021/11/05 07:11:02;;;;;;;17.13;7.97;;;;;;;;;;4969893;28;20030;-86
2021/11/05 07:13:28;;;;;;;14.77;7.47;;;;;;;;;;4972238;28;20034;-85
2021/11/05 07:15:54;;;;;;;16.42;8.05;;;;;;;;;;4969855;28;20134;-85
2021/11/05 07:18:21;;;;;;;17.73;8.48;;;;;;;;;;4968161;28;20486;-85
2021/11/05 07:20:47;;;;;;;19.10;8.73;;;;;;;;;;4972427;28;20026;-85
2021/11/05 07:23:13;;;;;;;17.77;8.63;;;;;;;;;;4984494;28;20031;-85
2021/11/05 07:25:40;;;;;;;16.73;8.32;;;;;;;;;;4986003;28;20108;-85
2021/11/05 07:28:06;;;;;;;15.90;8.07;;;;;;;;;;4981104;28;20181;-86
2021/11/05 07:30:32;;;;;;;13.80;7.00;;;;;;;;;;4981206;28;20121;-85
2021/11/05 07:32:58;;;;;;;14.77;7.78;;;;;;;;;;4988081;28;20045;-85
2021/11/05 07:35:24;;;;;;;13.15;6.82;;;;;;;;;;4971767;28;20439;-85
2021/11/05 07:37:51;;;;;;;14.25;7.30;;;;;;;;;;4985305;28;20035;-85
2021/11/05 07:40:17;;;;;;;15.52;7.72;;;;;;;;;;4982628;28;20058;-85
2021/11/05 07:42:44;;;;;;;14.50;7.30;;;;;;;;;;4984112;28;20383;-86
2021/11/05 07:45:12;;;;;;;16.13;8.15;;;;;;;;;;4991575;28;20027;-86
2021/11/05 07:47:38;;;;;;;13.82;6.90;;;;;;;;;;4979416;28;20036;-86
2021/11/05 07:50:06;;;;;;;10.98;6.53;;;;;;;;;;4978032;28;20027;-86
2021/11/05 07:52:32;;;;;;;14.18;6.88;;;;;;;;;;4983923;28;20023;-86
2021/11/05 07:54:58;;;;;;;14.10;7.07;;;;;;;;;;4970519;28;20384;-86
2021/11/05 07:57:24;;;;;;;12.77;6.57;;;;;;;;;;4981228;28;20073;-85
2021/11/05 07:59:50;;;;;;;14.30;6.88;;;;;;;;;;4966456;28;20487;-85
2021/11/05 08:02:16;;;;;;;12.93;5.97;;;;;;;;;;4984161;28;20036;-86
2021/11/05 08:04:42;;;;;;;16.33;6.80;;;;;;;;;;4982710;28;20526;-85
2021/11/05 08:07:08;;;;;;;15.05;6.25;;;;;;;;;;4979834;28;20031;-87
2021/11/05 08:09:35;;;;;;;13.60;7.07;;;;;;;;;;4986625;28;20526;-85
2021/11/05 08:12:01;;;;;;;11.80;5.85;;;;;;;;;;4985419;28;20059;-86
2021/11/05 08:14:27;;;;;;;17.58;7.00;;;;;;;;;;4987515;28;20035;-85
2021/11/05 08:16:53;;;;;;;11.07;6.18;;;;;;;;;;4970699;28;20125;-85
2021/11/05 08:19:19;;;;;;;14.05;6.95;;;;;;;;;;4988984;28;20031;-85
2021/11/05 08:21:45;;;;;;;15.23;7.68;;;;;;;;;;4996117;28;20090;-85
2021/11/05 08:24:11;;;;;;;11.32;6.20;;;;;;;;;;4988634;28;20035;-86
2021/11/05 08:26:37;;;;;;;11.30;6.18;;;;;;;;;;4974309;28;20217;-89
2021/11/05 08:29:04;;;;;;;13.43;6.63;;;;;;;;;;4983006;28;20049;-86
2021/11/05 08:31:30;;;;;;;16.55;6.80;;;;;;;;;;4993776;28;20076;-85
2021/11/05 08:33:56;;;;;;;10.23;5.55;;;;;;;;;;4996327;28;20030;-85
2021/11/05 08:36:24;;;;;;;12.90;5.65;;;;;;;;;;4992082;28;20030;-86
2021/11/05 08:38:51;;;;;;;12.60;5.57;;;;;;;;;;4993332;28;20029;-85
2021/11/05 08:41:17;;;;;;;13.05;5.88;;;;;;;;;;5001658;28;20026;-85
2021/11/05 08:43:45;;;;;;;12.35;5.10;;;;;;;;;;5006690;28;20034;-85
2021/11/05 08:46:16;;;;;;;11.30;5.30;;;;;;;;;;4991785;28;20054;-86
2021/11/05 08:48:42;;;;;;;11.30;5.50;;;;;;;;;;4993094;28;20022;-86
2021/11/05 08:51:10;;;;;;;8.80;4.90;;;;;;;;;;4992411;28;20038;-85
2021/11/05 08:53:37;;;;;;;12.35;5.55;;;;;;;;;;4987376;28;20047;-85
2021/11/05 08:56:03;;;;;;;9.45;4.53;;;;;;;;;;4973282;28;20050;-85
2021/11/05 08:58:30;;;;;;;11.68;5.00;;;;;;;;;;5002157;28;20489;-85
2021/11/05 09:00:56;;;;;;;8.75;4.28;;;;;;;;;;4979641;28;20027;-85
2021/11/05 09:03:22;;;;;;;10.25;5.00;;;;;;;;;;4986500;28;20394;-85
2021/11/05 09:05:48;;;;;;;8.32;4.28;;;;;;;;;;4973936;28;20045;-85
2021/11/05 09:08:14;;;;;;;7.97;4.25;;;;;;;;;;4986501;28;20018;-85
2021/11/05 09:10:41;;;;;;;11.02;4.45;;;;;;;;;;5006437;28;20027;-86
2021/11/05 09:13:08;;;;;;;7.75;4.32;;;;;;;;;;4979490;28;20019;-86
2021/11/05 09:15:34;;;;;;;10.65;5.15;;;;;;;;;;4979739;28;20030;-86
2021/11/05 09:18:02;;;;;;;8.55;4.25;;;;;;;;;;4981623;28;20538;-86
2021/11/05 09:20:29;;;;;;;7.88;4.15;;;;;;;;;;4988622;28;20694;-86
2021/11/05 09:22:55;;;;;;;8.52;4.68;;;;;;;;;;4979450;28;20031;-86
2021/11/05 09:25:21;;;;;;;11.68;5.45;;;;;;;;;;4977432;28;20173;-86
2021/11/05 09:27:48;;;;;;;9.05;4.75;;;;;;;;;;4998316;28;20034;-86
2021/11/05 09:30:14;;;;;;;7.53;4.00;;;;;;;;;;4988380;28;20091;-86
2021/11/05 09:32:40;;;;;;;7.95;4.35;;;;;;;;;;5000281;28;20033;-86
2021/11/05 09:35:07;;;;;;;8.38;4.32;;;;;;;;;;4991773;28;20475;-86
2021/11/05 09:37:34;;;;;;;9.95;4.57;;;;;;;;;;4993783;28;20558;-86
2021/11/05 09:40:00;;;;;;;8.30;4.63;;;;;;;;;;4993265;28;20061;-85
2021/11/05 09:42:26;;;;;;;8.55;4.65;;;;;;;;;;4982570;28;20469;-85
2021/11/05 09:44:52;;;;;;;8.60;4.20;;;;;;;;;;4986676;28;20333;-86
2021/11/05 09:47:18;;;;;;;10.98;4.30;;;;;;;;;;4982933;28;20031;-87
2021/11/05 09:49:44;;;;;;;10.73;4.05;;;;;;;;;;4990237;28;20086;-87
2021/11/05 09:52:10;;;;;;;11.02;4.78;;;;;;;;;;4985659;28;20144;-87
2021/11/05 09:54:40;;;;;;;6.70;3.85;;;;;;;;;;4991747;28;20031;-87
2021/11/05 09:57:06;;;;;;;11.65;3.80;;;;;;;;;;4993446;28;20116;-87
2021/11/05 09:59:32;;;;;;;7.00;3.88;;;;;;;;;;4989998;28;20121;-87
2021/11/05 10:01:58;;;;;;;7.05;3.90;;;;;;;;;;4993499;28;20498;-86
2021/11/05 10:04:25;;;;;;;6.13;3.70;;;;;;;;;;4993927;28;20033;-86
2021/11/05 10:07:03;;;;;;;8.45;4.30;;;;;;;;;;4994447;28;20030;-86
2021/11/05 10:09:40;;;;;;;6.10;3.80;;;;;;;;;;4989429;28;20557;-86
2021/11/05 10:12:07;;;;;;;5.50;3.28;;;;;;;;;;4989709;28;20383;-86
2021/11/05 10:14:33;;;;;;;5.22;3.10;;;;;;;;;;4987157;28;20077;-86
2021/11/05 10:17:00;;;;;;;8.10;3.97;;;;;;;;;;4994910;28;20113;-87
2021/11/05 10:19:45;;;;;;;8.50;3.65;;;;;;;;;;4998923;28;20105;-86
2021/11/05 10:22:31;;;;;;;7.28;3.70;;;;;;;;;;4990776;28;20505;-86
2021/11/05 10:25:15;;;;;;;8.82;4.28;;;;;;;;;;4986564;28;20061;-86
2021/11/05 10:27:41;;;;;;;6.95;3.63;;;;;;;;;;4988858;28;20069;-86
2021/11/05 10:30:07;;;;;;;9.07;4.22;;;;;;;;;;4980695;28;20095;-86
2021/11/05 10:32:34;;;;;;;5.18;3.33;;;;;;;;;;5005663;28;20035;-86
2021/11/05 10:35:10;;;;;;;7.50;3.60;;;;;;;;;;4993729;28;20490;-86
2021/11/05 10:37:37;;;;;;;6.53;3.40;;;;;;;;;;4986100;28;20085;-86
2021/11/05 10:40:07;;;;;;;8.27;3.50;;;;;;;;;;4992378;28;20023;-87
2021/11/05 10:42:35;;;;;;;8.82;3.80;;;;;;;;;;4983999;28;20050;-87
2021/11/05 10:45:12;;;;;;;5.90;3.58;;;;;;;;;;4991488;28;20027;-86
2021/11/05 10:47:53;;;;;;;7.18;3.70;;;;;;;;;;4966255;28;20101;-86
2021/11/05 10:50:20;;;;;;;6.45;3.35;;;;;;;;;;4993162;28;20015;-86
2021/11/05 10:53:06;;;;;;;9.20;4.18;;;;;;;;;;4980528;28;20491;-86
2021/11/05 10:55:49;;;;;;;5.07;3.17;;;;;;;;;;4987935;28;20018;-86
2021/11/05 10:58:16;;;;;;;7.73;3.63;;;;;;;;;;4991730;28;20068;-86
2021/11/05 11:00:42;;;;;;;7.22;3.75;;;;;;;;;;4976906;28;20501;-86
2021/11/05 11:03:31;;;;;;;11.38;4.32;;;;;;;;;;4986190;28;20062;-86
2021/11/05 11:06:00;;;;;;;5.25;3.60;;;;;;;;;;4975104;28;20026;-86
2021/11/05 11:08:28;;;;;;;6.55;3.38;;;;;;;;;;4994073;28;21460;-86
2021/11/05 11:10:55;;;;;;;6.80;4.07;;;;;;;;;;4980317;28;20026;-85
2021/11/05 11:13:29;;;;;;;5.75;3.15;;;;;;;;;;4994350;28;20109;-85
2021/11/05 11:15:55;;;;;;;8.32;3.70;;;;;;;;;;4977009;28;20478;-85
2021/11/05 11:18:21;;;;;;;6.78;3.35;;;;;;;;;;4982531;28;20188;-84
2021/11/05 11:20:47;;;;;;;6.07;3.60;;;;;;;;;;4993919;28;20030;-85
2021/11/05 11:23:14;;;;;;;7.18;4.05;;;;;;;;;;4994359;28;20026;-85
2021/11/05 11:25:40;;;;;;;6.70;3.40;;;;;;;;;;4990565;28;20122;-85
2021/11/05 11:28:06;;;;;;;9.48;3.60;;;;;;;;;;4990163;28;20070;-85
2021/11/05 11:30:32;;;;;;;4.60;3.15;;;;;;;;;;4987260;28;20106;-85
2021/11/05 11:32:58;;;;;;;8.90;3.38;;;;;;;;;;4976812;28;20101;-86
2021/11/05 11:35:24;;;;;;;8.90;3.47;;;;;;;;;;4974910;28;20026;-86
2021/11/05 11:37:51;;;;;;;4.70;2.67;;;;;;;;;;4969461;28;20033;-86
2021/11/05 11:40:17;;;;;;;7.68;3.50;;;;;;;;;;4989985;28;20084;-85
2021/11/05 11:42:44;;;;;;;5.97;2.70;;;;;;;;;;4979227;28;20057;-86
2021/11/05 11:45:11;;;;;;;4.95;2.78;;;;;;;;;;4989394;28;20106;-86
2021/11/05 11:47:44;;;;;;;5.07;2.70;;;;;;;;;;4986364;28;20454;-86
2021/11/05 11:50:30;;;;;;;4.60;3.00;;;;;;;;;;4987648;28;20030;-86
2021/11/05 11:52:57;;;;;;;4.25;2.40;;;;;;;;;;4980490;28;20034;-86
2021/11/05 11:55:23;;;;;;;4.05;2.50;;;;;;;;;;4979674;28;20536;-84
2021/11/05 11:57:50;;;;;;;5.45;2.40;;;;;;;;;;4980064;28;20026;-86
2021/11/05 12:00:23;;;;;;;4.47;2.75;;;;;;;;;;4977049;28;20030;-84
2021/11/05 12:02:49;;;;;;;;;;;;;;;;;;4991527;28;20058;-85
2021/11/05 12:05:18;;;;;;;3.22;1.92;;;;;;;;;;4988645;28;19910;-85
2021/11/05 12:07:44;;;;;;;2.92;2.08;;;;;;;;;;4989379;28;20476;-86
2021/11/05 12:10:23;;;;;;;3.60;2.20;;;;;;;;;;4991164;28;20375;-85
2021/11/05 12:12:49;;;;;;;3.85;2.20;;;;;;;;;;4988482;28;20382;-85
2021/11/05 12:15:16;;;;;;;4.70;1.92;;;;;;;;;;4976932;28;20045;-85
2021/11/05 12:17:51;;;;;;;4.93;2.33;;;;;;;;;;4990392;28;20030;-86
2021/11/05 12:20:33;;;;;;;2.88;1.80;;;;;;;;;;4987672;28;20030;-86
2021/11/05 12:23:14;;;;;;;4.65;2.25;;;;;;;;;;4983607;28;20038;-86
2021/11/05 12:25:43;;;;;;;3.35;2.25;;;;;;;;;;4986554;28;20029;-85
2021/11/05 12:28:16;;;;;;;6.90;2.88;;;;;;;;;;4975370;28;20043;-86
2021/11/05 12:30:43;;;;;;;6.13;3.00;;;;;;;;;;4990645;28;20026;-84
2021/11/05 12:33:26;;;;;;;6.22;3.03;;;;;;;;;;4990803;28;20037;-84
2021/11/05 12:35:52;;;;;;;4.93;2.75;;;;;;;;;;4983234;28;20026;-84
2021/11/05 12:38:19;;;;;;;5.55;2.90;;;;;;;;;;4994749;28;20478;-82
2021/11/05 12:40:55;;;;;;;5.95;2.95;;;;;;;;;;4982282;28;20478;-83
2021/11/05 12:43:24;;;;;;;4.18;3.00;;;;;;;;;;4996728;28;20023;-83
2021/11/05 12:45:51;;;;;;;5.18;3.28;;;;;;;;;;4991731;28;20026;-82
2021/11/05 12:48:18;;;;;;;7.40;3.28;;;;;;;;;;5000292;28;20031;-85
2021/11/05 12:50:48;;;;;;;4.47;3.15;;;;;;;;;;4985087;28;20027;-84
2021/11/05 12:53:14;;;;;;;4.70;3.05;;;;;;;;;;5004058;28;20117;-84
2021/11/05 12:55:41;;;;;;;6.15;2.97;;;;;;;;;;4992301;28;20113;-85
2021/11/05 12:58:09;;;;;;;4.38;2.50;;;;;;;;;;4988513;28;20030;-86
2021/11/05 13:00:37;;;;;;;5.30;2.60;;;;;;;;;;4991685;28;20106;-86
2021/11/05 13:03:04;;;;;;;3.83;2.38;;;;;;;;;;4984334;28;20128;-85
2021/11/05 13:05:31;;;;;;;3.70;2.67;;;;;;;;;;4983882;28;20470;-86
2021/11/05 13:07:58;;;;;;;3.88;2.50;;;;;;;;;;4991839;28;20529;-86
2021/11/05 13:10:28;;;;;;;7.32;2.47;;;;;;;;;;4988656;28;20499;-84
2021/11/05 13:12:55;;;;;;;4.10;2.38;;;;;;;;;;4995142;28;20023;-85
2021/11/05 13:15:21;;;;;;;6.60;2.83;;;;;;;;;;4978664;28;20070;-85
2021/11/05 13:17:47;;;;;;;3.75;2.60;;;;;;;;;;4993987;28;20034;-85
2021/11/05 13:20:19;;;;;;;5.18;2.85;;;;;;;;;;4999627;28;20061;-86
2021/11/05 13:22:46;;;;;;;7.32;2.90;;;;;;;;;;4978918;28;20514;-85
2021/11/05 13:25:16;;;;;;;5.03;3.03;;;;;;;;;;5001870;28;20089;-85
2021/11/05 13:27:43;;;;;;;4.70;3.13;;;;;;;;;;4980954;28;20042;-85
2021/11/05 13:30:09;;;;;;;5.25;3.55;;;;;;;;;;4975974;28;20037;-85
2021/11/05 13:32:36;;;;;;;4.95;3.30;;;;;;;;;;4992674;28;20022;-86
2021/11/05 13:35:02;;;;;;;4.63;3.08;;;;;;;;;;4979303;28;20933;-86
2021/11/05 13:37:28;;;;;;;4.68;3.35;;;;;;;;;;4990955;28;20134;-86
2021/11/05 13:39:54;;;;;;;7.00;3.60;;;;;;;;;;4977120;28;20125;-85
2021/11/05 13:42:25;;;;;;;8.73;3.92;;;;;;;;;;4972945;28;20141;-85
2021/11/05 13:45:06;;;;;;;7.95;3.47;;;;;;;;;;4972308;28;20030;-85
2021/11/05 13:47:32;;;;;;;13.65;4.15;;;;;;;;;;4977744;28;20371;-85
2021/11/05 13:50:09;;;;;;;8.38;4.53;;;;;;;;;;4993402;28;20026;-85
2021/11/05 13:52:35;;;;;;;8.93;3.67;;;;;;;;;;4995141;28;20026;-84
2021/11/05 13:55:01;;;;;;;7.78;4.57;;;;;;;;;;4982269;28;20019;-87
2021/11/05 13:57:27;;;;;;;10.40;4.20;;;;;;;;;;4983214;28;20038;-87
2021/11/05 13:59:54;;;;;;;6.53;4.10;;;;;;;;;;4980091;28;20033;-85
2021/11/05 14:02:22;;;;;;;5.72;4.00;;;;;;;;;;4998990;28;20034;-85
2021/11/05 14:04:49;;;;;;;6.00;3.90;;;;;;;;;;4976310;28;20019;-85
2021/11/05 14:07:15;;;;;;;8.05;4.32;;;;;;;;;;4970774;28;20121;-85
2021/11/05 14:09:41;;;;;;;6.80;4.18;;;;;;;;;;4980108;28;20023;-85
2021/11/05 14:12:15;;;;;;;7.57;4.55;;;;;;;;;;4992073;28;20061;-85
2021/11/05 14:14:51;;;;;;;7.65;4.18;;;;;;;;;;4989645;28;20015;-85
2021/11/05 14:17:20;;;;;;;7.22;3.95;;;;;;;;;;4989022;28;20066;-84
2021/11/05 14:19:50;;;;;;;9.52;4.45;;;;;;;;;;4986231;28;20475;-85
2021/11/05 14:22:17;;;;;;;10.38;5.22;;;;;;;;;;4986883;28;20045;-85
2021/11/05 14:24:45;;;;;;;8.23;4.32;;;;;;;;;;4993610;28;20019;-86
2021/11/05 14:27:13;;;;;;;8.65;4.68;;;;;;;;;;4967412;28;20061;-85
2021/11/05 14:29:44;;;;;;;9.50;4.97;;;;;;;;;;4989376;28;20030;-85
2021/11/05 14:32:12;;;;;;;7.90;4.10;;;;;;;;;;4990218;28;20501;-85
2021/11/05 14:34:55;;;;;;;8.43;4.68;;;;;;;;;;4976491;28;20034;-85
2021/11/05 14:37:24;;;;;;;9.32;4.28;;;;;;;;;;4982933;28;20065;-85
2021/11/05 14:40:00;;;;;;;10.98;4.80;;;;;;;;;;4989604;28;20061;-85